sensor_id;sensor_type;location;lat;lon;timestamp;pressure;altitude;pressure_sealevel;temperature;humidity
44872;BME280;30602;51.060;17.226;2022-07-11T00:01:28;101723.01;;;12.94;88.53
44872;BME280;30602;51.060;17.226;2022-07-11T00:05:10;101782.48;;;13.42;88.69
44872;BME280;30602;51.060;17.226;2022-07-11T00:08:22;101782.48;;;13.43;88.56
44872;BME280;30602;51.060;17.226;2022-07-11T00:11:33;101765.78;;;13.26;88.55
44872;BME280;30602;51.060;17.226;2022-07-11T00:15:31;101780.16;;;13.40;88.60
44872;BME280;30602;51.060;17.226;2022-07-11T00:18:42;101775.54;;;13.44;88.27
44872;BME280;30602;51.060;17.226;2022-07-11T00:21:53;101772.00;;;13.42;88.34
44872;BME280;30602;51.060;17.226;2022-07-11T00:25:08;101699.73;;;12.92;88.23
44872;BME280;30602;51.060;17.226;2022-07-11T00:28:24;101691.02;;;12.85;88.48
44872;BME280;30602;51.060;17.226;2022-07-11T00:31:37;101769.55;;;13.43;88.53
44872;BME280;30602;51.060;17.226;2022-07-11T00:34:49;101770.96;;;13.41;88.62
44872;BME280;30602;51.060;17.226;2022-07-11T00:38:31;101753.76;;;13.30;88.53
44872;BME280;30602;51.060;17.226;2022-07-11T00:42:19;101770.10;;;13.42;88.59
44872;BME280;30602;51.060;17.226;2022-07-11T00:45:34;101768.02;;;13.43;88.29
44872;BME280;30602;51.060;17.226;2022-07-11T00:48:49;101763.29;;;13.33;88.36
44872;BME280;30602;51.060;17.226;2022-07-11T00:52:29;101755.15;;;13.34;88.52
44872;BME280;30602;51.060;17.226;2022-07-11T00:55:37;101764.79;;;13.36;88.54
44872;BME280;30602;51.060;17.226;2022-07-11T00:58:50;101763.25;;;13.30;88.56
44872;BME280;30602;51.060;17.226;2022-07-11T01:02:29;101762.80;;;13.28;88.69
44872;BME280;30602;51.060;17.226;2022-07-11T01:05:39;101759.45;;;13.27;88.81
44872;BME280;30602;51.060;17.226;2022-07-11T01:09:22;101755.52;;;13.23;88.86
44872;BME280;30602;51.060;17.226;2022-07-11T01:12:36;101739.43;;;13.11;88.67
44872;BME280;30602;51.060;17.226;2022-07-11T01:16:20;101757.73;;;13.23;88.65
44872;BME280;30602;51.060;17.226;2022-07-11T01:19:45;101745.97;;;13.16;88.05
44872;BME280;30602;51.060;17.226;2022-07-11T01:23:03;101749.92;;;13.16;87.72
44872;BME280;30602;51.060;17.226;2022-07-11T01:26:45;101751.73;;;13.16;87.15
44872;BME280;30602;51.060;17.226;2022-07-11T01:30:40;101734.21;;;13.07;86.76
44872;BME280;30602;51.060;17.226;2022-07-11T01:34:21;101746.44;;;13.11;86.19
44872;BME280;30602;51.060;17.226;2022-07-11T01:37:27;101713.95;;;12.86;85.45
44872;BME280;30602;51.060;17.226;2022-07-11T01:40:35;101735.49;;;12.96;85.16
44872;BME280;30602;51.060;17.226;2022-07-11T01:43:47;101748.02;;;12.95;84.86
44872;BME280;30602;51.060;17.226;2022-07-11T01:46:58;101730.97;;;12.78;84.59
44872;BME280;30602;51.060;17.226;2022-07-11T01:50:09;101750.05;;;12.81;84.15
44872;BME280;30602;51.060;17.226;2022-07-11T01:53:21;101715.29;;;12.45;83.96
44872;BME280;30602;51.060;17.226;2022-07-11T01:56:54;101747.84;;;12.62;83.76
44872;BME280;30602;51.060;17.226;2022-07-11T02:00:07;101748.27;;;12.55;83.25
44872;BME280;30602;51.060;17.226;2022-07-11T02:03:35;101741.57;;;12.43;82.86
44872;BME280;30602;51.060;17.226;2022-07-11T02:07:07;101747.34;;;12.49;81.05
44872;BME280;30602;51.060;17.226;2022-07-11T02:11:04;101747.41;;;12.45;79.36
44872;BME280;30602;51.060;17.226;2022-07-11T02:14:15;101753.08;;;12.37;78.50
44872;BME280;30602;51.060;17.226;2022-07-11T02:17:25;101755.91;;;12.36;78.79
44872;BME280;30602;51.060;17.226;2022-07-11T02:20:42;101745.84;;;12.24;78.43
44872;BME280;30602;51.060;17.226;2022-07-11T02:23:53;101759.71;;;12.23;78.28
44872;BME280;30602;51.060;17.226;2022-07-11T02:27:06;101745.36;;;12.17;78.17
44872;BME280;30602;51.060;17.226;2022-07-11T02:30:35;101676.56;;;11.56;77.33
44872;BME280;30602;51.060;17.226;2022-07-11T02:33:53;101760.27;;;12.17;77.69
44872;BME280;30602;51.060;17.226;2022-07-11T02:37:06;101764.89;;;12.07;78.42
44872;BME280;30602;51.060;17.226;2022-07-11T02:40:19;101763.38;;;12.04;78.01
44872;BME280;30602;51.060;17.226;2022-07-11T02:44:00;101766.95;;;11.94;79.12
44872;BME280;30602;51.060;17.226;2022-07-11T02:47:20;101768.64;;;11.87;78.92
44872;BME280;30602;51.060;17.226;2022-07-11T02:51:01;101768.73;;;11.79;80.04
44872;BME280;30602;51.060;17.226;2022-07-11T02:54:29;101767.64;;;11.63;79.59
44872;BME280;30602;51.060;17.226;2022-07-11T02:58:13;101767.50;;;11.72;79.28
44872;BME280;30602;51.060;17.226;2022-07-11T03:01:53;101764.18;;;11.68;79.26
44872;BME280;30602;51.060;17.226;2022-07-11T03:05:13;101765.98;;;11.67;79.35
44872;BME280;30602;51.060;17.226;2022-07-11T03:09:11;101752.44;;;11.55;78.40
44872;BME280;30602;51.060;17.226;2022-07-11T03:12:29;101767.37;;;11.56;78.13
44872;BME280;30602;51.060;17.226;2022-07-11T03:16:02;101772.91;;;11.64;78.14
44872;BME280;30602;51.060;17.226;2022-07-11T03:19:13;101739.46;;;11.46;77.86
44872;BME280;30602;51.060;17.226;2022-07-11T03:22:38;101686.94;;;11.27;77.36
44872;BME280;30602;51.060;17.226;2022-07-11T03:26:20;101762.66;;;11.94;78.33
44872;BME280;30602;51.060;17.226;2022-07-11T03:29:32;101773.50;;;12.02;77.62
44872;BME280;30602;51.060;17.226;2022-07-11T03:33:11;101760.04;;;12.00;77.09
44872;BME280;30602;51.060;17.226;2022-07-11T03:36:25;101766.24;;;12.22;76.82
44872;BME280;30602;51.060;17.226;2022-07-11T03:39:37;101772.94;;;12.31;76.46
44872;BME280;30602;51.060;17.226;2022-07-11T03:42:51;101771.86;;;12.43;76.69
44872;BME280;30602;51.060;17.226;2022-07-11T03:46:03;101706.88;;;12.06;76.51
44872;BME280;30602;51.060;17.226;2022-07-11T03:49:15;101775.60;;;12.47;75.79
44872;BME280;30602;51.060;17.226;2022-07-11T03:52:57;101766.01;;;12.50;75.63
44872;BME280;30602;51.060;17.226;2022-07-11T03:56:32;101773.23;;;12.61;75.51
44872;BME280;30602;51.060;17.226;2022-07-11T04:00:12;101780.30;;;12.52;75.16
44872;BME280;30602;51.060;17.226;2022-07-11T04:03:22;101785.91;;;12.51;74.96
44872;BME280;30602;51.060;17.226;2022-07-11T04:06:56;101783.85;;;12.47;75.28
44872;BME280;30602;51.060;17.226;2022-07-11T04:10:40;101787.62;;;12.42;75.48
44872;BME280;30602;51.060;17.226;2022-07-11T04:13:49;101792.46;;;12.49;75.50
44872;BME280;30602;51.060;17.226;2022-07-11T04:17:04;101789.30;;;12.51;75.12
44872;BME280;30602;51.060;17.226;2022-07-11T04:20:17;101793.88;;;12.71;74.59
44872;BME280;30602;51.060;17.226;2022-07-11T04:24:28;101790.04;;;12.92;73.67
44872;BME280;30602;51.060;17.226;2022-07-11T04:27:37;101781.98;;;13.02;73.27
44872;BME280;30602;51.060;17.226;2022-07-11T04:30:50;101790.23;;;13.15;72.42
44872;BME280;30602;51.060;17.226;2022-07-11T04:34:29;101789.34;;;13.31;72.88
44872;BME280;30602;51.060;17.226;2022-07-11T04:37:52;101789.03;;;13.43;71.73
44872;BME280;30602;51.060;17.226;2022-07-11T04:41:05;101778.78;;;13.43;72.38
44872;BME280;30602;51.060;17.226;2022-07-11T04:44:47;101801.46;;;13.69;70.82
44872;BME280;30602;51.060;17.226;2022-07-11T04:48:29;101800.18;;;13.91;70.21
44872;BME280;30602;51.060;17.226;2022-07-11T04:51:44;101697.79;;;13.28;68.98
44872;BME280;30602;51.060;17.226;2022-07-11T04:54:55;101786.74;;;13.96;68.42
44872;BME280;30602;51.060;17.226;2022-07-11T04:58:06;101805.90;;;14.02;67.53
44872;BME280;30602;51.060;17.226;2022-07-11T05:01:18;101806.47;;;14.13;67.94
44872;BME280;30602;51.060;17.226;2022-07-11T05:04:31;101809.00;;;14.21;67.82
44872;BME280;30602;51.060;17.226;2022-07-11T05:08:05;101786.02;;;14.16;68.11
44872;BME280;30602;51.060;17.226;2022-07-11T05:11:15;101810.30;;;14.41;67.63
44872;BME280;30602;51.060;17.226;2022-07-11T05:14:25;101815.25;;;14.43;68.79
44872;BME280;30602;51.060;17.226;2022-07-11T05:17:44;101813.64;;;14.46;67.30
44872;BME280;30602;51.060;17.226;2022-07-11T05:20:53;101819.27;;;14.41;67.10
44872;BME280;30602;51.060;17.226;2022-07-11T05:24:46;101810.51;;;14.15;67.71
44872;BME280;30602;51.060;17.226;2022-07-11T05:27:58;101811.53;;;14.11;67.79
44872;BME280;30602;51.060;17.226;2022-07-11T05:31:08;101826.65;;;14.17;67.98
44872;BME280;30602;51.060;17.226;2022-07-11T05:34:18;101819.13;;;14.26;69.63
44872;BME280;30602;51.060;17.226;2022-07-11T05:37:30;101821.45;;;14.54;68.40
44872;BME280;30602;51.060;17.226;2022-07-11T05:40:41;101809.65;;;14.72;67.59
44872;BME280;30602;51.060;17.226;2022-07-11T05:44:05;101808.12;;;14.73;67.80
44872;BME280;30602;51.060;17.226;2022-07-11T05:47:19;101806.98;;;15.11;67.43
44872;BME280;30602;51.060;17.226;2022-07-11T05:50:30;101688.86;;;14.47;65.92
44872;BME280;30602;51.060;17.226;2022-07-11T05:54:03;101804.70;;;15.45;64.95
44872;BME280;30602;51.060;17.226;2022-07-11T05:57:40;101803.45;;;15.73;65.34
44872;BME280;30602;51.060;17.226;2022-07-11T06:00:58;101800.75;;;16.00;64.84
44872;BME280;30602;51.060;17.226;2022-07-11T06:04:14;101799.68;;;16.00;62.15
44872;BME280;30602;51.060;17.226;2022-07-11T06:07:27;101802.39;;;15.95;61.98
44872;BME280;30602;51.060;17.226;2022-07-11T06:10:51;101747.09;;;15.63;62.65
44872;BME280;30602;51.060;17.226;2022-07-11T06:14:05;101796.73;;;16.11;62.15
44872;BME280;30602;51.060;17.226;2022-07-11T06:17:51;101804.74;;;16.20;62.56
44872;BME280;30602;51.060;17.226;2022-07-11T06:21:55;101799.95;;;16.19;62.37
44872;BME280;30602;51.060;17.226;2022-07-11T06:25:34;101802.72;;;16.26;61.80
44872;BME280;30602;51.060;17.226;2022-07-11T06:28:59;101796.79;;;16.40;62.07
44872;BME280;30602;51.060;17.226;2022-07-11T06:32:36;101802.55;;;16.63;61.41
44872;BME280;30602;51.060;17.226;2022-07-11T06:35:59;101799.90;;;16.83;61.84
44872;BME280;30602;51.060;17.226;2022-07-11T06:39:12;101790.72;;;16.83;60.85
44872;BME280;30602;51.060;17.226;2022-07-11T06:42:21;101803.09;;;17.00;61.30
44872;BME280;30602;51.060;17.226;2022-07-11T06:45:31;101808.34;;;16.87;60.73
44872;BME280;30602;51.060;17.226;2022-07-11T06:49:00;101796.85;;;16.65;61.53
44872;BME280;30602;51.060;17.226;2022-07-11T06:52:18;101817.13;;;16.45;62.41
44872;BME280;30602;51.060;17.226;2022-07-11T06:55:57;101815.82;;;16.32;62.47
44872;BME280;30602;51.060;17.226;2022-07-11T06:59:07;101818.68;;;16.33;62.96
44872;BME280;30602;51.060;17.226;2022-07-11T07:02:17;101816.80;;;16.27;63.51
44872;BME280;30602;51.060;17.226;2022-07-11T07:05:39;101755.02;;;15.86;63.81
44872;BME280;30602;51.060;17.226;2022-07-11T07:08:53;101820.78;;;16.13;63.39
44872;BME280;30602;51.060;17.226;2022-07-11T07:12:10;101805.20;;;15.99;64.27
44872;BME280;30602;51.060;17.226;2022-07-11T07:15:20;101806.55;;;16.00;64.15
44872;BME280;30602;51.060;17.226;2022-07-11T07:18:54;101745.23;;;15.46;63.62
44872;BME280;30602;51.060;17.226;2022-07-11T07:22:07;101817.65;;;15.97;63.74
44872;BME280;30602;51.060;17.226;2022-07-11T07:25:32;101812.84;;;15.95;63.10
44872;BME280;30602;51.060;17.226;2022-07-11T07:28:47;101812.02;;;15.89;64.48
44872;BME280;30602;51.060;17.226;2022-07-11T07:32:50;101781.32;;;15.65;64.89
44872;BME280;30602;51.060;17.226;2022-07-11T07:35:59;101820.27;;;15.92;63.56
44872;BME280;30602;51.060;17.226;2022-07-11T07:39:27;101815.23;;;15.93;64.33
44872;BME280;30602;51.060;17.226;2022-07-11T07:43:19;101801.46;;;16.13;63.89
44872;BME280;30602;51.060;17.226;2022-07-11T07:46:34;101800.38;;;16.26;63.45
44872;BME280;30602;51.060;17.226;2022-07-11T07:49:45;101802.13;;;16.43;63.38
44872;BME280;30602;51.060;17.226;2022-07-11T07:52:55;101800.38;;;16.55;63.59
44872;BME280;30602;51.060;17.226;2022-07-11T07:56:08;101794.75;;;16.61;62.38
44872;BME280;30602;51.060;17.226;2022-07-11T07:59:19;101805.28;;;16.86;62.45
44872;BME280;30602;51.060;17.226;2022-07-11T08:03:25;101810.39;;;17.26;61.58
44872;BME280;30602;51.060;17.226;2022-07-11T08:06:38;101811.78;;;17.51;60.57
44872;BME280;30602;51.060;17.226;2022-07-11T08:09:57;101807.00;;;17.35;58.40
44872;BME280;30602;51.060;17.226;2022-07-11T08:13:10;101785.00;;;17.35;59.72
44872;BME280;30602;51.060;17.226;2022-07-11T08:17:03;101791.39;;;17.75;58.84
44872;BME280;30602;51.060;17.226;2022-07-11T08:20:15;101806.60;;;17.85;57.62
44872;BME280;30602;51.060;17.226;2022-07-11T08:23:26;101798.14;;;17.93;58.73
44872;BME280;30602;51.060;17.226;2022-07-11T08:26:38;101732.64;;;17.35;58.32
44872;BME280;30602;51.060;17.226;2022-07-11T08:30:09;101789.01;;;17.71;57.79
44872;BME280;30602;51.060;17.226;2022-07-11T08:33:29;101788.94;;;17.98;57.27
44872;BME280;30602;51.060;17.226;2022-07-11T08:36:43;101758.13;;;17.84;55.86
44872;BME280;30602;51.060;17.226;2022-07-11T08:39:55;101787.20;;;17.93;56.53
44872;BME280;30602;51.060;17.226;2022-07-11T08:43:31;101785.06;;;17.92;55.96
44872;BME280;30602;51.060;17.226;2022-07-11T08:46:44;101671.30;;;17.23;55.96
44872;BME280;30602;51.060;17.226;2022-07-11T08:49:59;101780.12;;;18.05;54.77
44872;BME280;30602;51.060;17.226;2022-07-11T08:53:09;101779.06;;;17.97;55.59
44872;BME280;30602;51.060;17.226;2022-07-11T08:56:46;101777.09;;;17.99;57.32
44872;BME280;30602;51.060;17.226;2022-07-11T09:00:03;101774.74;;;18.07;54.73
44872;BME280;30602;51.060;17.226;2022-07-11T09:03:45;101760.75;;;18.51;53.43
44872;BME280;30602;51.060;17.226;2022-07-11T09:07:08;101747.63;;;18.41;54.25
44872;BME280;30602;51.060;17.226;2022-07-11T09:10:20;101768.25;;;18.42;53.97
44872;BME280;30602;51.060;17.226;2022-07-11T09:13:36;101766.49;;;18.18;53.24
44872;BME280;30602;51.060;17.226;2022-07-11T09:16:54;101771.51;;;17.96;53.93
44872;BME280;30602;51.060;17.226;2022-07-11T09:20:25;101767.69;;;18.00;55.05
44872;BME280;30602;51.060;17.226;2022-07-11T09:24:12;101757.95;;;18.20;52.35
44872;BME280;30602;51.060;17.226;2022-07-11T09:28:23;101750.42;;;18.37;52.36
44872;BME280;30602;51.060;17.226;2022-07-11T09:31:55;101758.92;;;18.64;51.00
44872;BME280;30602;51.060;17.226;2022-07-11T09:35:12;101751.41;;;18.89;51.75
44872;BME280;30602;51.060;17.226;2022-07-11T09:38:26;101755.77;;;19.12;52.34
44872;BME280;30602;51.060;17.226;2022-07-11T09:41:51;101737.63;;;18.91;51.44
44872;BME280;30602;51.060;17.226;2022-07-11T09:45:30;101752.62;;;18.77;52.45
44872;BME280;30602;51.060;17.226;2022-07-11T09:48:45;101735.63;;;18.96;52.99
44872;BME280;30602;51.060;17.226;2022-07-11T09:52:15;101738.56;;;19.03;51.49
44872;BME280;30602;51.060;17.226;2022-07-11T09:55:47;101736.34;;;19.20;52.33
44872;BME280;30602;51.060;17.226;2022-07-11T09:59:32;101701.26;;;19.22;51.66
44872;BME280;30602;51.060;17.226;2022-07-11T10:03:17;101736.86;;;19.34;51.05
44872;BME280;30602;51.060;17.226;2022-07-11T10:06:32;101715.61;;;19.33;50.84
44872;BME280;30602;51.060;17.226;2022-07-11T10:09:44;101729.30;;;19.48;50.28
44872;BME280;30602;51.060;17.226;2022-07-11T10:13:28;101723.72;;;19.34;51.16
44872;BME280;30602;51.060;17.226;2022-07-11T10:17:05;101707.45;;;19.47;51.49
44872;BME280;30602;51.060;17.226;2022-07-11T10:28:06;101719.97;;;19.16;52.02
44872;BME280;30602;51.060;17.226;2022-07-11T10:31:26;101722.34;;;19.04;52.11
44872;BME280;30602;51.060;17.226;2022-07-11T10:35:07;101705.54;;;18.75;51.47
44872;BME280;30602;51.060;17.226;2022-07-11T10:38:19;101736.51;;;18.89;52.62
44872;BME280;30602;51.060;17.226;2022-07-11T10:42:18;101746.30;;;18.76;52.83
44872;BME280;30602;51.060;17.226;2022-07-11T10:45:19;101762.94;;;18.61;54.81
44872;BME280;30602;51.060;17.226;2022-07-11T10:48:33;101763.23;;;18.39;58.62
44872;BME280;30602;51.060;17.226;2022-07-11T10:51:59;101756.48;;;18.12;58.22
44872;BME280;30602;51.060;17.226;2022-07-11T10:55:23;101737.77;;;17.89;59.25
44872;BME280;30602;51.060;17.226;2022-07-11T10:58:41;101743.88;;;18.05;58.98
44872;BME280;30602;51.060;17.226;2022-07-11T11:05:52;101733.96;;;19.14;57.06
44872;BME280;30602;51.060;17.226;2022-07-11T11:09:02;101735.20;;;19.49;52.07
44872;BME280;30602;51.060;17.226;2022-07-11T11:24:43;101723.41;;;20.06;49.30
44872;BME280;30602;51.060;17.226;2022-07-11T11:28:02;101724.89;;;19.97;48.39
44872;BME280;30602;51.060;17.226;2022-07-11T11:31:13;101731.83;;;19.86;49.11
44872;BME280;30602;51.060;17.226;2022-07-11T11:34:47;101722.38;;;19.89;49.23
44872;BME280;30602;51.060;17.226;2022-07-11T11:38:44;101732.55;;;19.94;47.09
44872;BME280;30602;51.060;17.226;2022-07-11T11:42:06;101725.34;;;19.88;45.98
44872;BME280;30602;51.060;17.226;2022-07-11T11:45:39;101716.89;;;19.65;45.05
44872;BME280;30602;51.060;17.226;2022-07-11T11:48:57;101736.11;;;19.76;43.67
44872;BME280;30602;51.060;17.226;2022-07-11T11:52:10;101693.01;;;19.52;43.32
44872;BME280;30602;51.060;17.226;2022-07-11T11:55:23;101706.20;;;19.65;43.41
44872;BME280;30602;51.060;17.226;2022-07-11T11:58:45;101732.91;;;19.71;44.30
44872;BME280;30602;51.060;17.226;2022-07-11T12:02:06;101721.57;;;19.54;45.26
44872;BME280;30602;51.060;17.226;2022-07-11T12:05:56;101730.77;;;19.60;49.00
44872;BME280;30602;51.060;17.226;2022-07-11T12:09:39;101691.52;;;18.92;49.81
44872;BME280;30602;51.060;17.226;2022-07-11T12:12:56;101780.71;;;18.80;57.87
44872;BME280;30602;51.060;17.226;2022-07-11T12:16:29;101799.27;;;18.25;60.28
44872;BME280;30602;51.060;17.226;2022-07-11T12:19:48;101801.36;;;17.94;62.07
44872;BME280;30602;51.060;17.226;2022-07-11T12:23:00;101794.62;;;17.36;66.62
44872;BME280;30602;51.060;17.226;2022-07-11T12:26:28;101813.80;;;17.16;68.05
44872;BME280;30602;51.060;17.226;2022-07-11T12:29:47;101793.87;;;16.81;71.59
44872;BME280;30602;51.060;17.226;2022-07-11T12:33:12;101802.38;;;16.34;71.57
44872;BME280;30602;51.060;17.226;2022-07-11T12:37:09;101819.54;;;15.91;73.87
44872;BME280;30602;51.060;17.226;2022-07-11T12:41:10;101857.96;;;15.78;76.79
44872;BME280;30602;51.060;17.226;2022-07-11T12:44:26;101841.39;;;15.31;80.85
44872;BME280;30602;51.060;17.226;2022-07-11T12:47:47;101843.77;;;15.31;83.83
44872;BME280;30602;51.060;17.226;2022-07-11T12:51:37;101845.76;;;15.19;84.25
44872;BME280;30602;51.060;17.226;2022-07-11T12:58:38;101859.15;;;15.10;85.71
44872;BME280;30602;51.060;17.226;2022-07-11T13:02:12;101900.57;;;15.05;84.60
44872;BME280;30602;51.060;17.226;2022-07-11T13:06:23;101907.30;;;15.10;86.38
44872;BME280;30602;51.060;17.226;2022-07-11T13:09:51;101903.37;;;15.05;85.57
44872;BME280;30602;51.060;17.226;2022-07-11T13:13:10;101928.28;;;15.18;85.62
44872;BME280;30602;51.060;17.226;2022-07-11T13:16:50;101944.11;;;15.18;84.75
44872;BME280;30602;51.060;17.226;2022-07-11T13:20:22;101856.34;;;14.43;85.05
44872;BME280;30602;51.060;17.226;2022-07-11T13:23:32;101833.38;;;14.50;85.55
44872;BME280;30602;51.060;17.226;2022-07-11T13:26:47;101907.59;;;14.98;84.66
44872;BME280;30602;51.060;17.226;2022-07-11T13:30:49;101898.30;;;14.94;83.63
44872;BME280;30602;51.060;17.226;2022-07-11T13:34:01;101881.21;;;14.88;85.71
44872;BME280;30602;51.060;17.226;2022-07-11T13:38:22;101906.54;;;15.25;85.93
44872;BME280;30602;51.060;17.226;2022-07-11T13:41:43;101895.59;;;15.35;84.75
44872;BME280;30602;51.060;17.226;2022-07-11T13:44:56;101880.81;;;15.40;84.24
44872;BME280;30602;51.060;17.226;2022-07-11T13:48:33;101822.70;;;15.16;84.95
44872;BME280;30602;51.060;17.226;2022-07-11T13:52:15;101877.55;;;15.76;84.36
44872;BME280;30602;51.060;17.226;2022-07-11T13:57:22;101785.00;;;15.48;83.01
44872;BME280;30602;51.060;17.226;2022-07-11T14:01:07;101863.18;;;16.10;83.30
44872;BME280;30602;51.060;17.226;2022-07-11T14:04:26;101862.89;;;16.12;81.22
44872;BME280;30602;51.060;17.226;2022-07-11T14:07:42;101863.60;;;16.40;81.34
44872;BME280;30602;51.060;17.226;2022-07-11T14:11:26;101858.25;;;16.35;79.75
44872;BME280;30602;51.060;17.226;2022-07-11T14:15:12;101843.52;;;16.32;78.66
44872;BME280;30602;51.060;17.226;2022-07-11T14:18:57;101858.05;;;16.34;76.30
44872;BME280;30602;51.060;17.226;2022-07-11T14:22:20;101848.73;;;16.77;78.70
44872;BME280;30602;51.060;17.226;2022-07-11T14:25:33;101844.95;;;17.14;82.09
44872;BME280;30602;51.060;17.226;2022-07-11T14:28:48;101829.86;;;17.07;74.54
44872;BME280;30602;51.060;17.226;2022-07-11T14:32:04;101838.46;;;17.51;75.72
44872;BME280;30602;51.060;17.226;2022-07-11T14:35:29;101843.89;;;17.54;71.95
44872;BME280;30602;51.060;17.226;2022-07-11T14:39:58;101841.02;;;17.70;70.87
44872;BME280;30602;51.060;17.226;2022-07-11T14:44:19;101847.09;;;17.91;72.80
44872;BME280;30602;51.060;17.226;2022-07-11T14:47:32;101838.71;;;18.15;69.48
44872;BME280;30602;51.060;17.226;2022-07-11T14:50:41;101766.02;;;17.98;68.89
44872;BME280;30602;51.060;17.226;2022-07-11T14:54:26;101847.85;;;18.20;65.89
44872;BME280;30602;51.060;17.226;2022-07-11T14:57:57;101817.78;;;17.89;65.92
44872;BME280;30602;51.060;17.226;2022-07-11T15:01:11;101822.87;;;17.81;66.21
44872;BME280;30602;51.060;17.226;2022-07-11T15:04:24;101847.15;;;17.87;70.25
44872;BME280;30602;51.060;17.226;2022-07-11T15:08:07;101854.95;;;17.81;72.43
44872;BME280;30602;51.060;17.226;2022-07-11T15:11:45;101829.95;;;17.51;73.60
44872;BME280;30602;51.060;17.226;2022-07-11T15:15:21;101875.87;;;17.58;72.03
44872;BME280;30602;51.060;17.226;2022-07-11T15:18:59;101879.89;;;17.32;71.37
44872;BME280;30602;51.060;17.226;2022-07-11T15:22:11;101896.12;;;16.80;73.26
44872;BME280;30602;51.060;17.226;2022-07-11T15:25:26;101904.55;;;16.39;75.43
44872;BME280;30602;51.060;17.226;2022-07-11T15:28:39;101921.27;;;16.14;77.21
44872;BME280;30602;51.060;17.226;2022-07-11T15:32:21;101921.13;;;15.81;79.71
44872;BME280;30602;51.060;17.226;2022-07-11T15:35:37;101919.52;;;15.57;79.77
44872;BME280;30602;51.060;17.226;2022-07-11T15:39:30;101909.63;;;15.44;81.37
44872;BME280;30602;51.060;17.226;2022-07-11T15:43:12;101888.58;;;15.49;82.27
44872;BME280;30602;51.060;17.226;2022-07-11T15:46:22;101799.07;;;14.96;81.78
44872;BME280;30602;51.060;17.226;2022-07-11T15:49:33;101894.28;;;15.58;82.66
44872;BME280;30602;51.060;17.226;2022-07-11T15:53:44;101876.32;;;15.54;80.31
44872;BME280;30602;51.060;17.226;2022-07-11T15:57:37;101885.92;;;15.88;81.19
44872;BME280;30602;51.060;17.226;2022-07-11T16:00:48;101874.97;;;16.08;82.25
44872;BME280;30602;51.060;17.226;2022-07-11T16:04:14;101795.16;;;15.71;83.43
44872;BME280;30602;51.060;17.226;2022-07-11T16:08:25;101888.15;;;16.56;79.97
44872;BME280;30602;51.060;17.226;2022-07-11T16:11:34;101880.48;;;16.88;78.98
44872;BME280;30602;51.060;17.226;2022-07-11T16:15:04;101866.84;;;17.05;78.71
44872;BME280;30602;51.060;17.226;2022-07-11T16:18:37;101866.51;;;17.24;78.33
44872;BME280;30602;51.060;17.226;2022-07-11T16:22:27;101875.63;;;17.32;77.05
44872;BME280;30602;51.060;17.226;2022-07-11T16:26:07;101879.84;;;17.38;78.75
44872;BME280;30602;51.060;17.226;2022-07-11T16:29:41;101885.06;;;17.44;78.14
44872;BME280;30602;51.060;17.226;2022-07-11T16:33:34;101875.52;;;17.59;80.77
44872;BME280;30602;51.060;17.226;2022-07-11T16:36:45;101884.24;;;17.88;81.28
44872;BME280;30602;51.060;17.226;2022-07-11T16:40:29;101884.62;;;17.88;74.30
44872;BME280;30602;51.060;17.226;2022-07-11T16:44:14;101879.63;;;18.11;72.13
44872;BME280;30602;51.060;17.226;2022-07-11T16:48:01;101882.34;;;17.84;70.99
44872;BME280;30602;51.060;17.226;2022-07-11T16:51:25;101885.85;;;17.69;75.04
44872;BME280;30602;51.060;17.226;2022-07-11T16:54:38;101883.16;;;17.44;73.09
44872;BME280;30602;51.060;17.226;2022-07-11T16:58:00;101886.30;;;17.27;73.80
44872;BME280;30602;51.060;17.226;2022-07-11T17:01:17;101885.37;;;17.23;75.41
44872;BME280;30602;51.060;17.226;2022-07-11T17:04:43;101887.01;;;17.20;75.05
44872;BME280;30602;51.060;17.226;2022-07-11T17:08:17;101888.29;;;17.08;76.76
44872;BME280;30602;51.060;17.226;2022-07-11T17:11:40;101891.99;;;16.98;75.91
44872;BME280;30602;51.060;17.226;2022-07-11T17:15:26;101894.30;;;16.94;79.03
44872;BME280;30602;51.060;17.226;2022-07-11T17:18:41;101869.91;;;16.72;80.86
44872;BME280;30602;51.060;17.226;2022-07-11T17:21:56;101879.66;;;16.68;82.15
44872;BME280;30602;51.060;17.226;2022-07-11T17:25:11;101865.76;;;16.53;82.51
44872;BME280;30602;51.060;17.226;2022-07-11T17:29:49;101903.40;;;16.80;81.49
44872;BME280;30602;51.060;17.226;2022-07-11T17:33:17;101905.14;;;16.71;83.51
44872;BME280;30602;51.060;17.226;2022-07-11T17:37:20;101877.98;;;16.46;83.68
44872;BME280;30602;51.060;17.226;2022-07-11T17:40:31;101908.53;;;16.59;83.76
44872;BME280;30602;51.060;17.226;2022-07-11T17:44:36;101909.55;;;16.53;85.29
44872;BME280;30602;51.060;17.226;2022-07-11T17:48:05;101890.71;;;16.31;85.04
44872;BME280;30602;51.060;17.226;2022-07-11T17:51:20;101921.98;;;16.59;83.11
44872;BME280;30602;51.060;17.226;2022-07-11T17:54:55;101931.17;;;16.63;83.96
44872;BME280;30602;51.060;17.226;2022-07-11T17:58:08;101923.47;;;16.64;83.71
44872;BME280;30602;51.060;17.226;2022-07-11T18:01:50;101916.01;;;16.52;85.42
44872;BME280;30602;51.060;17.226;2022-07-11T18:05:05;101918.24;;;16.40;85.73
44872;BME280;30602;51.060;17.226;2022-07-11T18:08:16;101880.54;;;16.08;84.30
44872;BME280;30602;51.060;17.226;2022-07-11T18:12:20;101917.51;;;16.31;85.15
44872;BME280;30602;51.060;17.226;2022-07-11T18:15:33;101841.77;;;15.84;84.74